Time;durP1;ratioP1;P1;durP2;ratioP2;P2;SDS_P1;SDS_P2;PMS_P1;PMS_P2;Temp;Humidity;BMP_temperature;BMP_pressure;BME280_temperature;BME280_humidity;BME280_pressure;Samples;Min_cycle;Max_cycle;Signal;HPM_P1;HPM_P2
2021/03/16 00:01:31;;;;;;;13.77;7.28;;;17.50;99.90;;;;;;5053116;28;20037;-69
2021/03/16 00:03:57;;;;;;;8.55;6.85;;;17.50;99.90;;;;;;5053384;28;20029;-69
2021/03/16 00:06:22;;;;;;;11.43;7.32;;;17.50;99.90;;;;;;5050841;28;20227;-69
2021/03/16 00:08:48;;;;;;;10.73;6.72;;;17.40;99.90;;;;;;5052998;28;20044;-68
2021/03/16 00:11:13;;;;;;;8.35;6.25;;;17.40;99.90;;;;;;5053609;28;20029;-68
2021/03/16 00:13:39;;;;;;;10.73;7.00;;;17.40;99.90;;;;;;5053432;28;20032;-69
2021/03/16 00:16:05;;;;;;;9.98;6.57;;;17.40;99.90;;;;;;5052422;28;20089;-69
2021/03/16 00:18:31;;;;;;;8.10;6.25;;;17.30;99.90;;;;;;5052687;28;20434;-69
2021/03/16 00:20:57;;;;;;;9.35;6.40;;;17.30;99.90;;;;;;5053929;28;20108;-70
2021/03/16 00:23:23;;;;;;;9.95;6.05;;;17.30;99.90;;;;;;5053117;28;20028;-70
2021/03/16 00:25:48;;;;;;;8.32;5.95;;;17.30;99.90;;;;;;5053503;28;20017;-70
2021/03/16 00:28:14;;;;;;;8.98;5.90;;;17.30;99.90;;;;;;5053918;28;20107;-70
2021/03/16 00:30:39;;;;;;;10.07;6.13;;;17.30;99.90;;;;;;5052073;28;20024;-69
2021/03/16 00:33:06;;;;;;;9.02;5.60;;;17.30;99.90;;;;;;5052495;28;20033;-69
2021/03/16 00:35:31;;;;;;;8.05;5.70;;;17.20;99.90;;;;;;5052825;28;20538;-69
2021/03/16 00:37:57;;;;;;;9.18;5.95;;;17.20;99.90;;;;;;5052784;28;20040;-69
2021/03/16 00:40:23;;;;;;;8.07;5.65;;;17.20;99.90;;;;;;5052869;28;20022;-69
2021/03/16 00:42:49;;;;;;;8.73;5.30;;;17.20;99.90;;;;;;5052841;28;20036;-69
2021/03/16 00:45:15;;;;;;;7.45;5.35;;;17.20;99.90;;;;;;5053446;28;20021;-69
2021/03/16 00:47:40;;;;;;;8.40;5.25;;;17.20;99.90;;;;;;5052973;28;20059;-69
2021/03/16 00:50:09;;;;;;;8.57;4.95;;;17.10;99.90;;;;;;5053131;28;20056;-69
2021/03/16 00:52:34;;;;;;;9.20;5.10;;;17.10;99.90;;;;;;5053097;28;20060;-68
2021/03/16 00:55:00;;;;;;;8.65;4.97;;;17.10;99.90;;;;;;5052538;28;20068;-69
2021/03/16 00:57:26;;;;;;;7.13;4.30;;;17.10;99.90;;;;;;5053173;28;20495;-68
2021/03/16 00:59:51;;;;;;;7.90;4.72;;;17.10;99.90;;;;;;5052524;28;20032;-69
2021/03/16 01:02:19;;;;;;;6.97;4.18;;;17.10;99.90;;;;;;5051598;28;20090;-68
2021/03/16 01:04:45;;;;;;;7.30;4.57;;;17.10;99.90;;;;;;5051719;28;20032;-69
2021/03/16 01:07:11;;;;;;;8.40;4.55;;;17.00;99.90;;;;;;5051373;28;20029;-67
2021/03/16 01:09:36;;;;;;;7.43;4.32;;;17.10;99.90;;;;;;5052040;28;20124;-69
2021/03/16 01:12:02;;;;;;;9.23;4.57;;;17.10;99.90;;;;;;5052952;28;20025;-67
2021/03/16 01:14:28;;;;;;;7.53;4.32;;;17.10;99.90;;;;;;5052401;28;20029;-67
2021/03/16 01:16:54;;;;;;;6.72;3.67;;;17.00;99.90;;;;;;5051242;28;20430;-67
2021/03/16 01:19:19;;;;;;;6.65;3.97;;;17.00;99.90;;;;;;5052818;28;20025;-67
2021/03/16 01:21:45;;;;;;;8.57;4.70;;;17.00;99.90;;;;;;5052319;28;20147;-68
2021/03/16 01:24:10;;;;;;;7.57;4.13;;;16.90;99.90;;;;;;5053154;28;20028;-68
2021/03/16 01:26:36;;;;;;;5.78;3.70;;;16.90;99.90;;;;;;5051995;28;20056;-69
2021/03/16 01:29:04;;;;;;;9.23;3.97;;;16.90;99.90;;;;;;5052650;28;20029;-69
2021/03/16 01:31:30;;;;;;;7.05;3.90;;;16.90;99.90;;;;;;5051739;28;20472;-69
2021/03/16 01:33:55;;;;;;;6.57;3.63;;;16.90;99.90;;;;;;5052114;28;20037;-68
2021/03/16 01:36:21;;;;;;;8.35;3.92;;;16.80;99.90;;;;;;5049693;28;20469;-69
2021/03/16 01:38:47;;;;;;;5.32;3.28;;;16.80;99.90;;;;;;5052453;28;20025;-68
2021/03/16 01:41:12;;;;;;;6.40;3.40;;;16.80;99.90;;;;;;5051348;28;20483;-69
2021/03/16 01:43:38;;;;;;;10.18;3.92;;;16.80;99.90;;;;;;5051519;28;20029;-70
2021/03/16 01:46:06;;;;;;;7.97;3.55;;;16.80;99.90;;;;;;5051024;28;20461;-68
2021/03/16 01:48:33;;;;;;;8.50;3.22;;;16.80;99.90;;;;;;5051548;28;20120;-69
2021/03/16 01:51:01;;;;;;;6.80;3.40;;;16.70;99.90;;;;;;5051657;28;20079;-69
2021/03/16 01:53:27;;;;;;;6.07;3.10;;;16.70;99.90;;;;;;5051924;28;20083;-69
2021/03/16 01:55:54;;;;;;;7.43;3.60;;;16.70;99.90;;;;;;5051377;28;20072;-67
2021/03/16 01:58:20;;;;;;;7.53;3.15;;;16.70;99.90;;;;;;5052419;28;20365;-69
2021/03/16 02:00:46;;;;;;;5.40;3.25;;;16.70;99.90;;;;;;5050346;28;20043;-68
2021/03/16 02:03:12;;;;;;;8.02;3.63;;;16.70;99.90;;;;;;5051354;28;20120;-70
2021/03/16 02:05:41;;;;;;;6.55;3.20;;;16.70;99.90;;;;;;5050900;28;20021;-69
2021/03/16 02:08:28;;;;;;;5.03;3.10;;;16.60;99.90;;;;;;5051222;28;20082;-69
2021/03/16 02:10:54;;;;;;;5.22;2.85;;;16.60;99.90;;;;;;5052108;28;20021;-69
2021/03/16 02:13:41;;;;;;;6.07;2.72;;;16.60;99.90;;;;;;5050537;28;20025;-68
2021/03/16 02:16:14;;;;;;;5.45;2.80;;;16.50;99.90;;;;;;5050688;28;20056;-69
2021/03/16 02:18:59;;;;;;;6.10;2.97;;;16.50;99.90;;;;;;5052019;28;20106;-69
2021/03/16 02:21:31;;;;;;;5.65;2.95;;;16.50;99.90;;;;;;5050433;28;20025;-69
2021/03/16 02:24:05;;;;;;;6.43;3.20;;;16.50;99.90;;;;;;5051740;28;20486;-70
2021/03/16 02:26:58;;;;;;;5.40;2.78;;;16.50;99.90;;;;;;5051425;28;20033;-69
2021/03/16 02:29:31;;;;;;;4.75;2.92;;;16.50;99.90;;;;;;5051886;28;20017;-69
2021/03/16 02:32:19;;;;;;;6.38;2.63;;;16.40;99.90;;;;;;5050501;28;20040;-68
2021/03/16 02:34:50;;;;;;;5.25;2.58;;;16.40;99.90;;;;;;5049134;28;20496;-69
2021/03/16 02:37:17;;;;;;;6.63;2.47;;;16.40;99.90;;;;;;5050141;28;20089;-69
2021/03/16 02:39:44;;;;;;;6.68;2.63;;;16.40;99.90;;;;;;5051794;28;20354;-69
2021/03/16 02:42:12;;;;;;;4.18;2.30;;;16.40;99.90;;;;;;5051027;28;20120;-69
2021/03/16 02:44:39;;;;;;;7.15;2.70;;;16.40;99.90;;;;;;5050612;28;20036;-70
2021/03/16 02:47:06;;;;;;;5.40;2.60;;;16.40;99.90;;;;;;5050179;28;20485;-69
2021/03/16 02:49:35;;;;;;;7.45;2.47;;;16.40;99.90;;;;;;5049746;28;20540;-70
2021/03/16 02:52:03;;;;;;;7.20;2.47;;;16.40;99.90;;;;;;5050673;28;20021;-69
2021/03/16 02:54:29;;;;;;;5.50;2.85;;;16.30;99.90;;;;;;5051142;28;20068;-69
2021/03/16 02:56:56;;;;;;;4.85;2.33;;;16.30;99.90;;;;;;5050706;28;20060;-69
2021/03/16 02:59:25;;;;;;;5.25;2.47;;;16.30;99.90;;;;;;5051426;28;20350;-69
2021/03/16 03:01:51;;;;;;;5.05;2.38;;;16.30;99.90;;;;;;5050925;28;20025;-69
2021/03/16 03:04:20;;;;;;;4.70;2.30;;;16.30;99.90;;;;;;5051001;28;20033;-70
2021/03/16 03:06:47;;;;;;;4.70;2.17;;;16.30;99.90;;;;;;5050213;28;20485;-70
2021/03/16 03:09:14;;;;;;;5.03;2.65;;;16.30;99.90;;;;;;5051462;28;20035;-70
2021/03/16 03:11:40;;;;;;;7.18;2.22;;;16.30;99.90;;;;;;5050807;28;20017;-69
2021/03/16 03:14:08;;;;;;;5.68;2.33;;;16.20;99.90;;;;;;5050778;28;20389;-69
2021/03/16 03:16:34;;;;;;;5.47;2.00;;;16.20;99.90;;;;;;5050196;28;20040;-69
2021/03/16 03:19:00;;;;;;;5.07;2.20;;;16.20;99.90;;;;;;5051217;28;20021;-69
2021/03/16 03:21:34;;;;;;;4.18;2.20;;;16.20;99.90;;;;;;5051305;28;20029;-69
2021/03/16 03:24:05;;;;;;;4.55;2.30;;;16.20;99.90;;;;;;5055958;28;20088;-69
2021/03/16 03:26:36;;;;;;;5.07;2.22;;;16.10;99.90;;;;;;5071346;28;20059;-68
2021/03/16 03:29:02;;;;;;;4.53;2.28;;;16.10;99.90;;;;;;5064703;28;20028;-69
2021/03/16 03:31:28;;;;;;;5.78;2.53;;;16.10;99.90;;;;;;5053363;28;20032;-69
2021/03/16 03:33:55;;;;;;;3.45;1.88;;;16.10;99.90;;;;;;5052680;28;20032;-69
2021/03/16 03:36:22;;;;;;;5.60;2.20;;;16.10;99.90;;;;;;5053041;28;20029;-69
2021/03/16 03:38:51;;;;;;;5.07;2.00;;;16.10;99.90;;;;;;5054544;28;20036;-69
2021/03/16 03:41:17;;;;;;;6.28;2.38;;;16.10;99.90;;;;;;5053834;28;20021;-68
2021/03/16 03:43:43;;;;;;;5.75;1.65;;;16.10;99.90;;;;;;5053133;28;20031;-69
2021/03/16 03:46:10;;;;;;;5.65;2.42;;;16.00;99.90;;;;;;5053982;28;20024;-69
2021/03/16 03:48:36;;;;;;;6.80;2.22;;;16.00;99.90;;;;;;5053911;28;20025;-69
2021/03/16 03:51:03;;;;;;;5.03;2.20;;;16.00;99.90;;;;;;5053957;28;20040;-69
2021/03/16 03:53:29;;;;;;;4.35;1.73;;;16.00;99.90;;;;;;5054432;28;20025;-70
2021/03/16 03:55:55;;;;;;;4.72;2.00;;;16.00;99.90;;;;;;5053464;28;20040;-69
2021/03/16 03:58:24;;;;;;;4.78;2.20;;;16.00;99.90;;;;;;5054384;28;20025;-70
2021/03/16 04:00:50;;;;;;;4.47;1.83;;;16.00;99.90;;;;;;5054657;28;20028;-69
2021/03/16 04:03:15;;;;;;;3.22;1.73;;;15.90;99.90;;;;;;5052293;28;20019;-69
2021/03/16 04:05:41;;;;;;;3.55;1.90;;;15.90;99.90;;;;;;5053753;28;20389;-69
2021/03/16 04:08:08;;;;;;;3.75;1.75;;;15.90;99.90;;;;;;5052243;28;20464;-70
2021/03/16 04:10:36;;;;;;;4.78;2.05;;;15.90;99.90;;;;;;5053664;28;20078;-69
2021/03/16 04:13:05;;;;;;;3.67;1.77;;;15.90;99.90;;;;;;5053661;28;20029;-70
2021/03/16 04:15:32;;;;;;;5.18;2.42;;;15.90;99.90;;;;;;5053551;28;20481;-69
2021/03/16 04:17:58;;;;;;;5.28;1.88;;;15.80;99.90;;;;;;5053527;28;20102;-69
2021/03/16 04:20:25;;;;;;;5.80;2.15;;;15.80;99.90;;;;;;5053739;28;20025;-69
2021/03/16 04:22:51;;;;;;;4.72;2.20;;;15.80;99.90;;;;;;5053710;28;20515;-69
2021/03/16 04:25:16;;;;;;;3.58;1.77;;;15.80;99.90;;;;;;5053887;28;20060;-69
2021/03/16 04:27:42;;;;;;;3.80;2.00;;;15.80;99.90;;;;;;5053354;28;20044;-69
2021/03/16 04:30:08;;;;;;;3.92;2.05;;;15.80;99.90;;;;;;5053867;28;20389;-68
2021/03/16 04:32:35;;;;;;;6.53;2.40;;;15.80;99.90;;;;;;5052244;28;20025;-68
2021/03/16 04:35:01;;;;;;;6.72;1.92;;;15.70;99.90;;;;;;5053183;28;20035;-68
2021/03/16 04:37:27;;;;;;;4.97;2.05;;;15.80;99.90;;;;;;5052217;28;20393;-68
2021/03/16 04:39:52;;;;;;;7.20;1.90;;;15.80;99.90;;;;;;5053645;28;20024;-69
2021/03/16 04:42:18;;;;;;;5.20;2.00;;;15.70;99.90;;;;;;5051661;28;20427;-69
2021/03/16 04:44:45;;;;;;;2.25;1.45;;;15.70;99.90;;;;;;5052809;28;20461;-68
2021/03/16 04:47:10;;;;;;;6.07;2.03;;;15.80;99.90;;;;;;5051802;28;20523;-68
2021/03/16 04:49:36;;;;;;;5.18;2.20;;;15.80;99.90;;;;;;5053399;28;20036;-68
2021/03/16 04:52:02;;;;;;;5.65;1.88;;;15.70;99.90;;;;;;5052677;28;20096;-68
2021/03/16 04:54:28;;;;;;;5.60;2.33;;;15.70;99.90;;;;;;5053385;28;20409;-68
2021/03/16 04:56:54;;;;;;;3.53;1.80;;;15.70;99.90;;;;;;5052715;28;20120;-68
2021/03/16 04:59:19;;;;;;;4.82;2.22;;;15.70;99.90;;;;;;5053030;28;20017;-68
2021/03/16 05:01:45;;;;;;;6.05;2.20;;;15.70;99.90;;;;;;5052222;28;20037;-68
2021/03/16 05:04:11;;;;;;;4.40;1.90;;;15.70;99.90;;;;;;5052631;28;20029;-68
2021/03/16 05:06:36;;;;;;;4.55;2.20;;;15.70;99.90;;;;;;5051740;28;20036;-69
2021/03/16 05:09:03;;;;;;;4.85;2.40;;;15.70;99.90;;;;;;5053093;28;20036;-68
2021/03/16 05:11:28;;;;;;;5.45;2.10;;;15.70;99.90;;;;;;5051728;28;20480;-69
2021/03/16 05:13:54;;;;;;;3.35;1.90;;;15.70;99.90;;;;;;5052565;28;20048;-68
2021/03/16 05:16:21;;;;;;;4.55;2.42;;;15.60;99.90;;;;;;5050928;28;20037;-68
2021/03/16 05:18:47;;;;;;;5.50;2.30;;;15.60;99.90;;;;;;5049331;28;20370;-68
2021/03/16 05:21:12;;;;;;;4.03;1.63;;;15.60;99.90;;;;;;5051666;28;20025;-68
2021/03/16 05:23:38;;;;;;;5.95;2.10;;;15.60;99.90;;;;;;5052681;28;20036;-68
2021/03/16 05:26:04;;;;;;;3.78;2.20;;;15.60;99.90;;;;;;5050749;28;20032;-68
2021/03/16 05:28:29;;;;;;;5.78;2.30;;;15.60;99.90;;;;;;5052100;28;20211;-68
2021/03/16 05:30:55;;;;;;;2.92;1.80;;;15.60;99.90;;;;;;5052905;28;20104;-68
2021/03/16 05:33:21;;;;;;;4.43;2.22;;;15.60;99.90;;;;;;5051025;28;20044;-67
2021/03/16 05:35:47;;;;;;;4.03;2.17;;;15.60;99.90;;;;;;5051699;28;20434;-67
2021/03/16 05:38:13;;;;;;;3.72;2.10;;;15.60;99.90;;;;;;5050846;28;20076;-68
2021/03/16 05:40:39;;;;;;;7.00;2.20;;;15.60;99.90;;;;;;5051984;28;20104;-68
2021/03/16 05:43:06;;;;;;;6.13;2.05;;;15.60;99.90;;;;;;5051156;28;20112;-68
2021/03/16 05:45:32;;;;;;;3.58;2.15;;;15.60;99.90;;;;;;5049794;28;20029;-68
2021/03/16 05:47:59;;;;;;;5.85;2.70;;;15.50;99.90;;;;;;5052495;28;20109;-68
2021/03/16 05:50:24;;;;;;;3.85;2.35;;;15.50;99.90;;;;;;5050987;28;20025;-68
2021/03/16 05:52:54;;;;;;;4.22;2.00;;;15.50;99.90;;;;;;5051042;28;20044;-69
2021/03/16 05:55:20;;;;;;;3.63;2.10;;;15.50;99.90;;;;;;5050910;28;20362;-69
2021/03/16 05:57:50;;;;;;;6.15;2.60;;;15.50;99.90;;;;;;5033538;28;20037;-69
2021/03/16 06:00:16;;;;;;;3.90;2.30;;;15.50;99.90;;;;;;5049708;28;20476;-68
2021/03/16 06:02:42;;;;;;;4.60;2.53;;;15.50;99.90;;;;;;5051198;28;20034;-68
2021/03/16 06:05:08;;;;;;;3.92;1.95;;;15.50;99.90;;;;;;5052214;28;20094;-68
2021/03/16 06:07:33;;;;;;;5.63;2.33;;;15.50;99.90;;;;;;5051439;28;20040;-68
2021/03/16 06:09:59;;;;;;;3.80;2.13;;;15.50;99.90;;;;;;5051882;28;20033;-67
2021/03/16 06:12:33;;;;;;;3.75;2.55;;;15.40;99.90;;;;;;5050358;28;20033;-68
2021/03/16 06:15:10;;;;;;;3.65;2.50;;;15.40;99.90;;;;;;5052383;28;20021;-68
2021/03/16 06:17:54;;;;;;;3.83;2.30;;;15.40;99.90;;;;;;5051357;28;20508;-69
2021/03/16 06:20:25;;;;;;;;;;;15.40;99.90;;;;;;5052526;28;20021;-69
2021/03/16 06:23:01;;;;;;;5.18;2.35;;;15.40;99.90;;;;;;5050835;28;19909;-69
2021/03/16 06:25:34;;;;;;;4.03;2.25;;;15.40;99.90;;;;;;5050572;28;20025;-69
2021/03/16 06:28:08;;;;;;;4.20;2.45;;;15.40;99.90;;;;;;5051554;28;20033;-69
2021/03/16 06:30:35;;;;;;;4.80;2.10;;;15.40;99.90;;;;;;5051929;28;20026;-69
2021/03/16 06:33:01;;;;;;;4.40;2.05;;;15.30;99.90;;;;;;5051518;28;20111;-69
2021/03/16 06:35:27;;;;;;;4.57;2.38;;;15.30;99.90;;;;;;5051210;28;20032;-68
2021/03/16 06:38:11;;;;;;;4.80;2.47;;;15.30;99.90;;;;;;5051744;28;20036;-68
2021/03/16 06:40:37;;;;;;;3.00;2.20;;;15.30;99.90;;;;;;5049999;28;20037;-68
2021/03/16 06:43:09;;;;;;;5.30;2.42;;;15.30;99.90;;;;;;5050811;28;20017;-68
2021/03/16 06:45:39;;;;;;;4.60;2.17;;;15.30;99.90;;;;;;5047683;28;20504;-67
2021/03/16 06:48:18;;;;;;;5.65;2.25;;;15.30;99.90;;;;;;5051644;28;20033;-68
2021/03/16 06:50:45;;;;;;;3.97;2.38;;;15.40;99.90;;;;;;5051110;28;20013;-68
2021/03/16 06:53:25;;;;;;;3.70;2.28;;;15.30;99.90;;;;;;5051658;28;20082;-67
2021/03/16 06:55:51;;;;;;;3.00;1.95;;;15.30;99.90;;;;;;5050217;28;20017;-67
2021/03/16 06:58:21;;;;;;;5.38;2.28;;;15.30;99.90;;;;;;5051538;28;20121;-67
2021/03/16 07:00:46;;;;;;;6.22;2.25;;;15.40;99.90;;;;;;5050676;28;20033;-71
2021/03/16 07:03:14;;;;;;;8.85;3.90;;;15.10;99.90;;;;;;5051613;28;20029;-70
2021/03/16 07:05:39;;;;;;;9.82;5.22;;;14.80;99.90;;;;;;5043598;28;20432;-73
2021/03/16 07:08:09;;;;;;;13.25;6.32;;;14.50;99.90;;;;;;5055042;28;20029;-73
2021/03/16 07:10:35;;;;;;;11.60;6.25;;;14.20;99.90;;;;;;5054855;28;20029;-71
2021/03/16 07:13:01;;;;;;;10.60;6.82;;;14.20;99.90;;;;;;5054652;28;20518;-75
2021/03/16 07:15:28;;;;;;;11.20;7.72;;;14.00;99.90;;;;;;5055328;28;20040;-66
2021/03/16 07:17:55;;;;;;;12.20;6.80;;;13.80;99.90;;;;;;5053786;28;20047;-70
2021/03/16 07:20:22;;;;;;;18.88;8.00;;;13.70;99.90;;;;;;5055245;28;20029;-69
2021/03/16 07:22:52;;;;;;;13.18;8.30;;;13.60;99.90;;;;;;5053961;28;20385;-69
2021/03/16 07:25:19;;;;;;;12.45;7.70;;;13.60;99.90;;;;;;5054538;28;20051;-71
2021/03/16 07:27:46;;;;;;;11.43;7.07;;;13.60;99.90;;;;;;5055145;28;20033;-70
2021/03/16 07:30:13;;;;;;;12.75;7.20;;;13.60;99.90;;;;;;5054765;28;20056;-69
2021/03/16 07:32:40;;;;;;;14.23;6.93;;;14.00;99.90;;;;;;5054127;28;20075;-69
2021/03/16 07:35:08;;;;;;;10.88;6.40;;;14.20;99.90;;;;;;5055067;28;20422;-69
2021/03/16 07:37:34;;;;;;;8.90;4.05;;;14.30;99.90;;;;;;5053401;28;20123;-69
2021/03/16 07:40:03;;;;;;;9.20;4.78;;;14.50;99.90;;;;;;5054295;28;20060;-70
2021/03/16 07:42:29;;;;;;;7.22;4.45;;;14.60;99.90;;;;;;5052469;28;20021;-69
2021/03/16 07:44:56;;;;;;;10.02;4.30;;;14.70;99.90;;;;;;5054524;28;20029;-69
2021/03/16 07:47:35;;;;;;;7.80;4.20;;;14.70;99.90;;;;;;5054103;28;20025;-69
2021/03/16 07:50:07;;;;;;;6.28;3.92;;;14.80;99.90;;;;;;5054910;28;20025;-69
2021/03/16 07:52:46;;;;;;;6.32;3.53;;;14.80;99.90;;;;;;5054560;28;20534;-69
2021/03/16 07:55:33;;;;;;;7.13;3.45;;;14.80;99.90;;;;;;5054760;28;20017;-71
2021/03/16 07:58:12;;;;;;;5.13;2.65;;;14.80;99.90;;;;;;5054536;28;20045;-72
2021/03/16 08:00:39;;;;;;;6.70;2.40;;;15.30;99.90;;;;;;5053409;28;20028;-67
2021/03/16 08:03:09;;;;;;;6.43;2.75;;;15.60;99.90;;;;;;5053213;28;20025;-68
2021/03/16 08:05:43;;;;;;;6.15;2.60;;;15.60;99.60;;;;;;5053488;28;20025;-65
2021/03/16 08:08:14;;;;;;;5.55;2.33;;;15.70;99.70;;;;;;5050034;28;20384;-66
2021/03/16 08:10:39;;;;;;;5.75;2.70;;;15.80;99.20;;;;;;5051955;28;20025;-66
2021/03/16 08:13:05;;;;;;;4.15;2.25;;;15.90;99.20;;;;;;5054342;28;20021;-68
2021/03/16 08:15:44;;;;;;;3.97;2.30;;;16.10;98.70;;;;;;5053753;28;20381;-71
2021/03/16 08:18:25;;;;;;;6.20;2.80;;;16.10;98.90;;;;;;5053828;28;20033;-69
2021/03/16 08:20:50;;;;;;;6.93;2.30;;;16.20;99.00;;;;;;5053290;28;20457;-68
2021/03/16 08:23:16;;;;;;;5.63;2.30;;;16.30;99.20;;;;;;5053652;28;20032;-66
2021/03/16 08:25:48;;;;;;;7.43;2.85;;;16.40;99.40;;;;;;5053776;28;20021;-68
2021/03/16 08:28:16;;;;;;;6.13;2.33;;;16.40;98.80;;;;;;5054003;28;20032;-68
2021/03/16 08:30:42;;;;;;;5.82;2.40;;;16.40;99.10;;;;;;5053721;28;20100;-68
2021/03/16 08:33:13;;;;;;;8.20;2.95;;;16.40;99.60;;;;;;5053825;28;20087;-68
2021/03/16 08:35:46;;;;;;;5.95;2.60;;;16.30;99.90;;;;;;5053094;28;20070;-69
2021/03/16 08:38:20;;;;;;;7.45;2.45;;;16.20;99.90;;;;;;5052983;28;20128;-68
2021/03/16 08:41:01;;;;;;;5.05;2.58;;;16.20;99.90;;;;;;5053620;28;20028;-72
2021/03/16 08:43:26;;;;;;;4.68;2.28;;;16.20;99.90;;;;;;5053897;28;20029;-68
2021/03/16 08:45:52;;;;;;;4.47;2.28;;;16.20;99.90;;;;;;5053175;28;20021;-69
2021/03/16 08:48:32;;;;;;;4.88;2.20;;;16.10;99.90;;;;;;5053361;28;20094;-73
2021/03/16 08:50:59;;;;;;;4.75;2.33;;;16.20;99.90;;;;;;5052180;28;20384;-70
2021/03/16 08:53:26;;;;;;;6.15;2.38;;;16.10;99.80;;;;;;5053571;28;20032;-68
2021/03/16 08:55:53;;;;;;;4.38;2.13;;;16.10;99.60;;;;;;5053408;28;20039;-70
2021/03/16 08:58:21;;;;;;;4.30;2.40;;;16.10;99.80;;;;;;5053038;28;20082;-67
2021/03/16 09:00:47;;;;;;;3.72;1.80;;;16.10;99.90;;;;;;5053180;28;20082;-68
2021/03/16 09:03:13;;;;;;;5.72;2.28;;;16.10;99.90;;;;;;5053316;28;20032;-62
2021/03/16 09:05:41;;;;;;;3.60;2.08;;;16.20;99.90;;;;;;5053259;28;20074;-61
2021/03/16 09:08:07;;;;;;;4.88;2.00;;;17.30;99.90;;;;;;5052194;28;20032;-61
2021/03/16 09:10:32;;;;;;;4.53;2.17;;;18.80;98.40;;;;;;5053219;28;20031;-65
2021/03/16 09:13:00;;;;;;;7.70;1.80;;;19.80;97.20;;;;;;5053063;28;20025;-66
2021/03/16 09:15:33;;;;;;;3.33;1.67;;;20.50;96.50;;;;;;5052614;28;20108;-69
2021/03/16 09:18:05;;;;;;;5.50;1.90;;;21.00;96.10;;;;;;5052396;28;20047;-70
2021/03/16 09:20:32;;;;;;;3.13;1.77;;;21.50;95.90;;;;;;5053071;28;20215;-70
2021/03/16 09:23:05;;;;;;;4.47;1.67;;;21.80;95.70;;;;;;5052358;28;20028;-68
2021/03/16 09:25:36;;;;;;;3.63;1.83;;;22.10;95.50;;;;;;5053000;28;20024;-67
2021/03/16 09:28:04;;;;;;;4.07;1.55;;;22.40;95.30;;;;;;5051845;28;20029;-68
2021/03/16 09:30:31;;;;;;;3.65;1.88;;;21.50;96.70;;;;;;5052137;28;20036;-69
2021/03/16 09:32:57;;;;;;;3.90;1.80;;;21.10;97.30;;;;;;5052798;28;20098;-66
2021/03/16 09:35:23;;;;;;;4.15;1.90;;;21.80;96.80;;;;;;5052585;28;20106;-64
2021/03/16 09:37:51;;;;;;;5.22;2.20;;;22.40;96.30;;;;;;5051923;28;20033;-67
2021/03/16 09:40:18;;;;;;;4.00;2.10;;;21.70;97.50;;;;;;5052164;28;20074;-68
2021/03/16 09:42:47;;;;;;;4.68;2.17;;;21.10;98.20;;;;;;5052560;28;20029;-70
2021/03/16 09:45:22;;;;;;;4.28;1.83;;;21.80;97.60;;;;;;5052009;28;20029;-68
2021/03/16 09:47:48;;;;;;;5.07;2.30;;;22.50;96.80;;;;;;5047850;28;20120;-69
2021/03/16 09:50:21;;;;;;;6.13;2.10;;;21.90;98.80;;;;;;5071884;28;20028;-66
2021/03/16 09:52:55;;;;;;;5.72;2.40;;;21.20;99.20;;;;;;5072346;28;20495;-69
2021/03/16 09:55:24;;;;;;;4.70;2.75;;;21.90;98.30;;;;;;5055349;28;20071;-70
2021/03/16 09:57:49;;;;;;;6.78;2.90;;;22.40;97.90;;;;;;5051971;28;20064;-69
2021/03/16 10:00:16;;;;;;;5.97;3.33;;;21.60;99.50;;;;;;5052014;28;20059;-66
2021/03/16 10:02:43;;;;;;;8.50;3.78;;;21.20;99.70;;;;;;5035785;28;20540;-67
2021/03/16 10:05:14;;;;;;;7.82;3.92;;;22.00;98.80;;;;;;5052231;28;20079;-68
2021/03/16 10:07:40;;;;;;;10.70;5.43;;;22.20;98.90;;;;;;5051837;28;20523;-66
2021/03/16 10:10:26;;;;;;;8.85;4.75;;;21.60;99.90;;;;;;5051922;28;20025;-66
2021/03/16 10:13:02;;;;;;;10.32;5.30;;;21.20;99.90;;;;;;5051804;28;20033;-68
2021/03/16 10:15:29;;;;;;;9.85;5.40;;;22.40;98.80;;;;;;5051803;28;20079;-67
2021/03/16 10:17:58;;;;;;;11.95;5.93;;;22.20;98.90;;;;;;5051957;28;20028;-65
2021/03/16 10:20:39;;;;;;;11.13;5.55;;;21.50;99.90;;;;;;5052017;28;20017;-65
2021/03/16 10:23:07;;;;;;;11.05;5.30;;;21.40;99.90;;;;;;5052045;28;20232;-63
2021/03/16 10:25:35;;;;;;;9.68;5.25;;;22.40;99.00;;;;;;5051552;28;20738;-64
2021/03/16 10:28:09;;;;;;;9.65;5.35;;;22.10;99.90;;;;;;5052005;28;20086;-67
2021/03/16 10:30:36;;;;;;;9.88;5.65;;;21.60;99.90;;;;;;5051136;28;20029;-66
2021/03/16 10:33:02;;;;;;;9.35;5.57;;;21.40;99.90;;;;;;5051793;28;20032;-66
2021/03/16 10:35:29;;;;;;;12.02;5.35;;;22.50;99.30;;;;;;5051681;28;20029;-67
2021/03/16 10:37:56;;;;;;;10.85;5.43;;;22.20;99.90;;;;;;5051160;28;20120;-66
2021/03/16 10:40:22;;;;;;;10.00;5.55;;;21.70;99.90;;;;;;5054176;28;20379;-67
2021/03/16 10:42:48;;;;;;;9.20;4.90;;;21.30;99.90;;;;;;5054929;28;20523;-66
2021/03/16 10:45:16;;;;;;;10.52;5.20;;;22.20;99.90;;;;;;5054095;28;20066;-65
2021/03/16 10:47:42;;;;;;;8.60;4.97;;;22.30;99.70;;;;;;5052305;28;20017;-63
2021/03/16 10:50:08;;;;;;;9.95;5.15;;;21.80;99.90;;;;;;5055761;28;20104;-67
2021/03/16 10:52:34;;;;;;;9.38;4.85;;;21.30;99.90;;;;;;5055702;28;20151;-65
2021/03/16 10:55:00;;;;;;;7.82;4.20;;;21.80;99.90;;;;;;5054011;28;20104;-67
2021/03/16 10:57:25;;;;;;;8.65;4.78;;;22.40;99.80;;;;;;5056039;28;20369;-68
2021/03/16 10:59:51;;;;;;;7.32;5.00;;;21.90;99.90;;;;;;5055513;28;20024;-66
2021/03/16 11:02:17;;;;;;;8.48;4.72;;;21.50;99.90;;;;;;5053161;28;20115;-65
2021/03/16 11:04:43;;;;;;;8.77;4.25;;;21.40;99.90;;;;;;5055264;28;20351;-69
2021/03/16 11:07:08;;;;;;;13.07;4.70;;;22.40;99.90;;;;;;5055666;28;20588;-68
2021/03/16 11:09:34;;;;;;;8.25;4.60;;;22.10;99.90;;;;;;5054988;28;20354;-67
2021/03/16 11:12:00;;;;;;;8.40;4.45;;;21.60;99.90;;;;;;5053909;28;20021;-70
2021/03/16 11:14:26;;;;;;;8.18;4.40;;;21.20;99.90;;;;;;5055658;28;20025;-67
2021/03/16 11:16:51;;;;;;;7.47;4.50;;;21.90;99.90;;;;;;5055369;28;20478;-67
2021/03/16 11:19:17;;;;;;;7.97;4.40;;;21.70;99.90;;;;;;5055833;28;20033;-69
2021/03/16 11:21:43;;;;;;;9.57;4.35;;;21.30;99.90;;;;;;5055570;28;20017;-69
2021/03/16 11:24:10;;;;;;;6.90;4.45;;;21.00;99.90;;;;;;5054900;28;20476;-69
2021/03/16 11:26:35;;;;;;;7.97;4.43;;;20.70;99.90;;;;;;5053659;28;20083;-68
2021/03/16 11:29:01;;;;;;;8.20;5.00;;;20.50;99.90;;;;;;5055021;28;20029;-67
2021/03/16 11:31:27;;;;;;;14.80;9.10;;;20.30;99.90;;;;;;5055159;28;20477;-65
2021/03/16 11:33:53;;;;;;;28.38;18.55;;;20.00;97.60;;;;;;5055037;28;20049;-65
2021/03/16 11:36:19;;;;;;;25.13;17.67;;;19.30;94.20;;;;;;5054197;28;20384;-67
2021/03/16 11:38:45;;;;;;;30.65;17.20;;;18.90;94.80;;;;;;5055358;28;20508;-65
2021/03/16 11:41:10;;;;;;;26.00;17.67;;;18.70;95.70;;;;;;5055183;28;20052;-70
2021/03/16 11:43:36;;;;;;;21.55;15.50;;;18.50;95.80;;;;;;5053529;28;20500;-64
2021/03/16 11:46:02;;;;;;;22.13;16.42;;;18.40;96.00;;;;;;5054840;28;20021;-63
2021/03/16 11:48:27;;;;;;;26.58;18.45;;;18.30;95.90;;;;;;5054707;28;20136;-64
2021/03/16 11:50:53;;;;;;;25.38;18.13;;;18.10;95.80;;;;;;5053727;28;20025;-64
2021/03/16 11:53:20;;;;;;;25.92;18.45;;;18.00;95.90;;;;;;5052161;28;20029;-66
2021/03/16 11:55:45;;;;;;;25.35;16.92;;;18.00;96.20;;;;;;5055372;28;20024;-66
2021/03/16 11:58:11;;;;;;;26.60;17.55;;;18.00;96.10;;;;;;5059381;28;20036;-65
2021/03/16 12:00:37;;;;;;;25.20;15.90;;;18.00;96.20;;;;;;5054605;28;20536;-70
2021/03/16 12:03:04;;;;;;;24.23;15.95;;;17.90;96.90;;;;;;5053055;28;20031;-63
2021/03/16 12:05:30;;;;;;;25.02;15.20;;;18.00;97.00;;;;;;5052824;28;20044;-65
2021/03/16 12:07:56;;;;;;;25.38;14.90;;;18.10;96.90;;;;;;5053169;28;20025;-64
2021/03/16 12:10:21;;;;;;;23.42;15.63;;;18.10;97.00;;;;;;5053100;28;20021;-62
2021/03/16 12:12:47;;;;;;;22.40;14.73;;;18.00;97.00;;;;;;5053365;28;20029;-67
2021/03/16 12:15:16;;;;;;;21.83;14.95;;;17.90;97.10;;;;;;5052678;28;20021;-64
2021/03/16 12:17:43;;;;;;;21.63;15.05;;;18.00;97.30;;;;;;5052876;28;20036;-63
2021/03/16 12:20:09;;;;;;;23.30;15.15;;;17.90;97.30;;;;;;5052745;28;20444;-63
2021/03/16 12:22:35;;;;;;;21.90;15.00;;;17.90;97.50;;;;;;5052690;28;20108;-63
2021/03/16 12:25:05;;;;;;;20.13;13.63;;;17.80;97.70;;;;;;5050129;28;20104;-62
2021/03/16 12:27:31;;;;;;;20.23;13.98;;;17.80;98.10;;;;;;5053381;28;20079;-74
2021/03/16 12:29:58;;;;;;;21.95;13.73;;;17.80;98.20;;;;;;5052978;28;20087;-75
2021/03/16 12:32:24;;;;;;;17.88;12.48;;;17.80;98.30;;;;;;5052176;28;20028;-69
2021/03/16 12:34:51;;;;;;;20.35;13.23;;;17.80;98.40;;;;;;5052496;28;20029;-63
2021/03/16 12:37:17;;;;;;;19.88;12.93;;;17.70;98.50;;;;;;5053138;28;20032;-69
2021/03/16 12:39:43;;;;;;;18.40;12.85;;;17.70;98.50;;;;;;5053781;28;20025;-69
2021/03/16 12:42:10;;;;;;;27.48;14.05;;;17.70;98.80;;;;;;5053859;28;20031;-70
2021/03/16 12:44:35;;;;;;;22.33;12.00;;;18.10;99.90;;;;;;5053605;28;20063;-69
2021/03/16 12:47:04;;;;;;;21.63;11.75;;;19.50;99.00;;;;;;5053750;28;20032;-70